sensor_id;sensor_type;location;lat;lon;timestamp;temperature;humidity
46508;DHT22;32223;53.654;10.014;2022-11-20T00:01:41;1.50;99.90
46508;DHT22;32223;53.654;10.014;2022-11-20T00:04:08;1.40;99.90
46508;DHT22;32223;53.654;10.014;2022-11-20T00:06:34;1.40;99.90
46508;DHT22;32223;53.654;10.014;2022-11-20T00:09:00;1.40;99.90
46508;DHT22;32223;53.654;10.014;2022-11-20T00:11:27;1.30;99.90
46508;DHT22;32223;53.654;10.014;2022-11-20T00:13:55;1.30;99.90
46508;DHT22;32223;53.654;10.014;2022-11-20T00:16:24;1.30;99.90
46508;DHT22;32223;53.654;10.014;2022-11-20T00:18:50;1.30;99.90
46508;DHT22;32223;53.654;10.014;2022-11-20T00:21:21;1.30;99.90
46508;DHT22;32223;53.654;10.014;2022-11-20T00:23:48;1.40;99.90
46508;DHT22;32223;53.654;10.014;2022-11-20T00:26:16;1.50;99.90
46508;DHT22;32223;53.654;10.014;2022-11-20T00:28:42;1.50;99.90
46508;DHT22;32223;53.654;10.014;2022-11-20T00:31:14;1.40;99.90
46508;DHT22;32223;53.654;10.014;2022-11-20T00:33:40;1.40;99.90
46508;DHT22;32223;53.654;10.014;2022-11-20T00:36:09;1.40;99.90
46508;DHT22;32223;53.654;10.014;2022-11-20T00:38:34;1.50;99.90
46508;DHT22;32223;53.654;10.014;2022-11-20T00:41:04;1.50;99.90
46508;DHT22;32223;53.654;10.014;2022-11-20T00:43:30;1.50;99.90
46508;DHT22;32223;53.654;10.014;2022-11-20T00:45:59;1.40;99.90
46508;DHT22;32223;53.654;10.014;2022-11-20T00:48:26;1.50;99.90
46508;DHT22;32223;53.654;10.014;2022-11-20T00:50:52;1.50;99.90
46508;DHT22;32223;53.654;10.014;2022-11-20T00:53:18;1.50;99.90
46508;DHT22;32223;53.654;10.014;2022-11-20T00:55:55;1.40;99.90
46508;DHT22;32223;53.654;10.014;2022-11-20T00:58:22;1.40;99.90
46508;DHT22;32223;53.654;10.014;2022-11-20T01:00:47;1.40;99.90
46508;DHT22;32223;53.654;10.014;2022-11-20T01:03:15;1.40;99.90
46508;DHT22;32223;53.654;10.014;2022-11-20T01:05:41;1.50;99.90
46508;DHT22;32223;53.654;10.014;2022-11-20T01:08:07;1.50;99.90
46508;DHT22;32223;53.654;10.014;2022-11-20T01:10:32;1.50;99.90
46508;DHT22;32223;53.654;10.014;2022-11-20T01:12:58;1.40;99.90
46508;DHT22;32223;53.654;10.014;2022-11-20T01:15:42;1.40;99.90
46508;DHT22;32223;53.654;10.014;2022-11-20T01:18:07;1.40;99.90
46508;DHT22;32223;53.654;10.014;2022-11-20T01:20:36;1.40;99.90
46508;DHT22;32223;53.654;10.014;2022-11-20T01:23:03;1.50;99.90
46508;DHT22;32223;53.654;10.014;2022-11-20T01:25:29;1.40;99.90
46508;DHT22;32223;53.654;10.014;2022-11-20T01:27:55;1.40;99.90
46508;DHT22;32223;53.654;10.014;2022-11-20T01:30:20;1.40;99.90
46508;DHT22;32223;53.654;10.014;2022-11-20T01:32:46;1.40;99.90
46508;DHT22;32223;53.654;10.014;2022-11-20T01:35:11;1.30;99.90
46508;DHT22;32223;53.654;10.014;2022-11-20T01:37:37;1.30;99.90
46508;DHT22;32223;53.654;10.014;2022-11-20T01:40:03;1.40;99.90
46508;DHT22;32223;53.654;10.014;2022-11-20T01:42:29;1.40;99.90
46508;DHT22;32223;53.654;10.014;2022-11-20T01:48:18;1.30;99.90
46508;DHT22;32223;53.654;10.014;2022-11-20T01:50:44;1.30;99.90
46508;DHT22;32223;53.654;10.014;2022-11-20T01:53:13;1.30;99.90
46508;DHT22;32223;53.654;10.014;2022-11-20T01:55:43;1.30;99.90
46508;DHT22;32223;53.654;10.014;2022-11-20T01:58:10;1.20;99.90
46508;DHT22;32223;53.654;10.014;2022-11-20T02:00:36;1.20;99.90
46508;DHT22;32223;53.654;10.014;2022-11-20T02:03:05;1.10;99.90
46508;DHT22;32223;53.654;10.014;2022-11-20T02:05:44;1.10;99.90
46508;DHT22;32223;53.654;10.014;2022-11-20T02:08:11;1.10;99.90
46508;DHT22;32223;53.654;10.014;2022-11-20T02:10:37;1.00;99.90
46508;DHT22;32223;53.654;10.014;2022-11-20T02:13:03;1.00;99.90
46508;DHT22;32223;53.654;10.014;2022-11-20T02:15:48;1.00;99.90
46508;DHT22;32223;53.654;10.014;2022-11-20T02:18:17;1.00;99.90
46508;DHT22;32223;53.654;10.014;2022-11-20T02:20:46;1.10;99.90
46508;DHT22;32223;53.654;10.014;2022-11-20T02:25:54;1.10;99.90
46508;DHT22;32223;53.654;10.014;2022-11-20T02:28:22;1.10;99.90
46508;DHT22;32223;53.654;10.014;2022-11-20T02:30:47;1.10;99.90
46508;DHT22;32223;53.654;10.014;2022-11-20T02:33:13;1.10;99.90
46508;DHT22;32223;53.654;10.014;2022-11-20T02:35:44;1.10;99.90
46508;DHT22;32223;53.654;10.014;2022-11-20T02:38:10;1.20;99.90
46508;DHT22;32223;53.654;10.014;2022-11-20T02:40:36;1.20;99.90
46508;DHT22;32223;53.654;10.014;2022-11-20T02:43:01;1.20;99.90
46508;DHT22;32223;53.654;10.014;2022-11-20T02:45:27;1.20;99.90
46508;DHT22;32223;53.654;10.014;2022-11-20T02:47:53;1.10;99.90
46508;DHT22;32223;53.654;10.014;2022-11-20T02:50:19;1.10;99.90
46508;DHT22;32223;53.654;10.014;2022-11-20T02:52:44;1.00;99.90
46508;DHT22;32223;53.654;10.014;2022-11-20T02:55:10;1.00;99.90
46508;DHT22;32223;53.654;10.014;2022-11-20T02:57:35;1.00;99.90
46508;DHT22;32223;53.654;10.014;2022-11-20T03:00:01;1.00;99.90
46508;DHT22;32223;53.654;10.014;2022-11-20T03:02:30;0.90;99.90
46508;DHT22;32223;53.654;10.014;2022-11-20T03:04:56;0.90;99.90
46508;DHT22;32223;53.654;10.014;2022-11-20T03:07:21;0.90;99.90
46508;DHT22;32223;53.654;10.014;2022-11-20T03:09:47;0.90;99.90
46508;DHT22;32223;53.654;10.014;2022-11-20T03:12:13;0.90;99.90
46508;DHT22;32223;53.654;10.014;2022-11-20T03:14:38;0.90;99.90
46508;DHT22;32223;53.654;10.014;2022-11-20T03:17:04;0.90;99.90
46508;DHT22;32223;53.654;10.014;2022-11-20T03:19:29;0.90;99.90
46508;DHT22;32223;53.654;10.014;2022-11-20T03:21:55;0.90;99.90
46508;DHT22;32223;53.654;10.014;2022-11-20T03:24:21;0.90;99.90
46508;DHT22;32223;53.654;10.014;2022-11-20T03:26:46;0.90;99.90
46508;DHT22;32223;53.654;10.014;2022-11-20T03:29:12;1.00;99.90
46508;DHT22;32223;53.654;10.014;2022-11-20T03:31:39;1.00;99.90
46508;DHT22;32223;53.654;10.014;2022-11-20T03:34:06;1.10;99.90
46508;DHT22;32223;53.654;10.014;2022-11-20T03:36:32;1.20;99.90
46508;DHT22;32223;53.654;10.014;2022-11-20T03:38:58;1.10;99.90
46508;DHT22;32223;53.654;10.014;2022-11-20T03:41:26;1.10;99.90
46508;DHT22;32223;53.654;10.014;2022-11-20T03:44:00;1.10;99.90
46508;DHT22;32223;53.654;10.014;2022-11-20T03:46:27;1.10;99.90
46508;DHT22;32223;53.654;10.014;2022-11-20T03:48:54;1.10;99.90
46508;DHT22;32223;53.654;10.014;2022-11-20T03:53:48;1.10;99.90
46508;DHT22;32223;53.654;10.014;2022-11-20T03:56:16;1.10;99.90
46508;DHT22;32223;53.654;10.014;2022-11-20T03:58:42;1.10;99.90
46508;DHT22;32223;53.654;10.014;2022-11-20T04:01:17;1.10;99.90
46508;DHT22;32223;53.654;10.014;2022-11-20T04:03:44;1.10;99.90
46508;DHT22;32223;53.654;10.014;2022-11-20T04:06:11;1.10;99.90
46508;DHT22;32223;53.654;10.014;2022-11-20T04:08:37;1.10;99.90
46508;DHT22;32223;53.654;10.014;2022-11-20T04:11:12;1.10;99.90
46508;DHT22;32223;53.654;10.014;2022-11-20T04:13:38;1.00;99.90
46508;DHT22;32223;53.654;10.014;2022-11-20T04:16:05;1.00;99.90
46508;DHT22;32223;53.654;10.014;2022-11-20T04:18:31;1.00;99.90
46508;DHT22;32223;53.654;10.014;2022-11-20T04:20:57;1.10;99.90
46508;DHT22;32223;53.654;10.014;2022-11-20T04:23:23;1.10;99.90
46508;DHT22;32223;53.654;10.014;2022-11-20T04:25:49;1.10;99.90
46508;DHT22;32223;53.654;10.014;2022-11-20T04:28:15;1.10;99.90
46508;DHT22;32223;53.654;10.014;2022-11-20T04:30:41;1.10;99.90
46508;DHT22;32223;53.654;10.014;2022-11-20T04:33:07;1.10;99.90
46508;DHT22;32223;53.654;10.014;2022-11-20T04:35:37;1.20;99.90
46508;DHT22;32223;53.654;10.014;2022-11-20T04:38:03;1.10;99.90
46508;DHT22;32223;53.654;10.014;2022-11-20T04:40:29;1.10;99.90
46508;DHT22;32223;53.654;10.014;2022-11-20T04:42:55;1.10;99.90
46508;DHT22;32223;53.654;10.014;2022-11-20T04:45:21;1.10;99.90
46508;DHT22;32223;53.654;10.014;2022-11-20T04:47:47;1.10;99.90
46508;DHT22;32223;53.654;10.014;2022-11-20T04:50:12;1.00;99.90
46508;DHT22;32223;53.654;10.014;2022-11-20T04:52:38;0.90;99.90
46508;DHT22;32223;53.654;10.014;2022-11-20T04:55:04;0.90;99.90
46508;DHT22;32223;53.654;10.014;2022-11-20T04:57:29;0.90;99.90
46508;DHT22;32223;53.654;10.014;2022-11-20T04:59:55;0.80;99.90
46508;DHT22;32223;53.654;10.014;2022-11-20T05:02:21;0.80;99.90
46508;DHT22;32223;53.654;10.014;2022-11-20T05:04:46;0.80;99.90
46508;DHT22;32223;53.654;10.014;2022-11-20T05:07:12;0.80;99.90
46508;DHT22;32223;53.654;10.014;2022-11-20T05:09:38;0.80;99.90
46508;DHT22;32223;53.654;10.014;2022-11-20T05:12:04;0.90;99.90
46508;DHT22;32223;53.654;10.014;2022-11-20T05:14:29;0.90;99.90
46508;DHT22;32223;53.654;10.014;2022-11-20T05:16:55;0.90;99.90
46508;DHT22;32223;53.654;10.014;2022-11-20T05:19:21;0.90;99.90
46508;DHT22;32223;53.654;10.014;2022-11-20T05:21:46;0.80;99.90
46508;DHT22;32223;53.654;10.014;2022-11-20T05:24:12;0.80;99.90
46508;DHT22;32223;53.654;10.014;2022-11-20T05:26:38;0.70;99.90
46508;DHT22;32223;53.654;10.014;2022-11-20T05:29:04;0.80;99.90
46508;DHT22;32223;53.654;10.014;2022-11-20T05:31:29;0.70;99.90
46508;DHT22;32223;53.654;10.014;2022-11-20T05:33:56;0.70;99.90
46508;DHT22;32223;53.654;10.014;2022-11-20T05:36:22;0.70;99.90
46508;DHT22;32223;53.654;10.014;2022-11-20T05:38:47;0.80;99.90
46508;DHT22;32223;53.654;10.014;2022-11-20T05:41:15;0.70;99.90
46508;DHT22;32223;53.654;10.014;2022-11-20T05:43:43;0.70;99.90
46508;DHT22;32223;53.654;10.014;2022-11-20T05:46:11;0.70;99.90
46508;DHT22;32223;53.654;10.014;2022-11-20T05:48:38;0.70;99.90
46508;DHT22;32223;53.654;10.014;2022-11-20T05:51:05;0.70;99.90
46508;DHT22;32223;53.654;10.014;2022-11-20T05:53:35;0.70;99.90
46508;DHT22;32223;53.654;10.014;2022-11-20T05:56:04;0.70;99.90
46508;DHT22;32223;53.654;10.014;2022-11-20T05:58:32;0.60;99.90
46508;DHT22;32223;53.654;10.014;2022-11-20T06:01:24;0.60;99.90
46508;DHT22;32223;53.654;10.014;2022-11-20T06:03:52;0.60;99.90
46508;DHT22;32223;53.654;10.014;2022-11-20T06:06:18;0.70;99.90
46508;DHT22;32223;53.654;10.014;2022-11-20T06:08:45;0.70;99.90
46508;DHT22;32223;53.654;10.014;2022-11-20T06:11:12;0.60;99.90
46508;DHT22;32223;53.654;10.014;2022-11-20T06:13:38;0.70;99.90
46508;DHT22;32223;53.654;10.014;2022-11-20T06:16:04;0.70;99.90
46508;DHT22;32223;53.654;10.014;2022-11-20T06:18:30;0.70;99.90
46508;DHT22;32223;53.654;10.014;2022-11-20T06:21:25;0.80;99.90
46508;DHT22;32223;53.654;10.014;2022-11-20T06:23:52;0.80;99.90
46508;DHT22;32223;53.654;10.014;2022-11-20T06:26:21;0.80;99.90
46508;DHT22;32223;53.654;10.014;2022-11-20T06:28:47;0.80;99.90
46508;DHT22;32223;53.654;10.014;2022-11-20T06:31:15;0.70;99.90
46508;DHT22;32223;53.654;10.014;2022-11-20T06:33:42;0.60;99.90
46508;DHT22;32223;53.654;10.014;2022-11-20T06:36:10;0.50;99.90
46508;DHT22;32223;53.654;10.014;2022-11-20T06:38:37;0.40;99.90
46508;DHT22;32223;53.654;10.014;2022-11-20T06:41:05;0.40;99.90
46508;DHT22;32223;53.654;10.014;2022-11-20T06:43:30;0.30;99.90
46508;DHT22;32223;53.654;10.014;2022-11-20T06:45:57;0.30;99.90
46508;DHT22;32223;53.654;10.014;2022-11-20T06:48:25;0.30;99.90
46508;DHT22;32223;53.654;10.014;2022-11-20T06:50:51;0.30;99.90
46508;DHT22;32223;53.654;10.014;2022-11-20T06:53:17;0.30;99.90
46508;DHT22;32223;53.654;10.014;2022-11-20T06:55:44;0.40;99.90
46508;DHT22;32223;53.654;10.014;2022-11-20T06:58:11;0.50;99.90
46508;DHT22;32223;53.654;10.014;2022-11-20T07:00:36;0.50;99.90
46508;DHT22;32223;53.654;10.014;2022-11-20T07:03:06;0.50;99.90
46508;DHT22;32223;53.654;10.014;2022-11-20T07:05:32;0.60;99.90
46508;DHT22;32223;53.654;10.014;2022-11-20T07:07:58;0.60;99.90
46508;DHT22;32223;53.654;10.014;2022-11-20T07:10:24;0.60;99.90
46508;DHT22;32223;53.654;10.014;2022-11-20T07:12:51;0.60;99.90
46508;DHT22;32223;53.654;10.014;2022-11-20T07:15:18;0.70;99.90
46508;DHT22;32223;53.654;10.014;2022-11-20T07:17:43;0.70;99.90
46508;DHT22;32223;53.654;10.014;2022-11-20T07:20:09;0.80;99.90
46508;DHT22;32223;53.654;10.014;2022-11-20T07:22:35;0.80;99.90
46508;DHT22;32223;53.654;10.014;2022-11-20T07:25:01;0.70;99.90
46508;DHT22;32223;53.654;10.014;2022-11-20T07:27:27;0.70;99.90
46508;DHT22;32223;53.654;10.014;2022-11-20T07:29:53;0.80;99.90
46508;DHT22;32223;53.654;10.014;2022-11-20T07:32:19;0.80;99.90
46508;DHT22;32223;53.654;10.014;2022-11-20T07:34:44;0.80;99.90
46508;DHT22;32223;53.654;10.014;2022-11-20T07:37:10;0.80;99.90
46508;DHT22;32223;53.654;10.014;2022-11-20T07:39:35;0.80;99.90
46508;DHT22;32223;53.654;10.014;2022-11-20T07:42:01;0.90;99.90
46508;DHT22;32223;53.654;10.014;2022-11-20T07:44:27;0.90;99.90
46508;DHT22;32223;53.654;10.014;2022-11-20T07:46:52;1.00;99.90
46508;DHT22;32223;53.654;10.014;2022-11-20T07:49:18;1.00;99.90
46508;DHT22;32223;53.654;10.014;2022-11-20T07:51:43;1.00;99.90
46508;DHT22;32223;53.654;10.014;2022-11-20T07:54:09;1.00;99.90
46508;DHT22;32223;53.654;10.014;2022-11-20T07:56:34;1.00;99.90
46508;DHT22;32223;53.654;10.014;2022-11-20T07:59:00;1.10;99.90
46508;DHT22;32223;53.654;10.014;2022-11-20T08:01:26;1.10;99.90
46508;DHT22;32223;53.654;10.014;2022-11-20T08:03:51;1.10;99.90
46508;DHT22;32223;53.654;10.014;2022-11-20T08:06:17;1.20;99.90
46508;DHT22;32223;53.654;10.014;2022-11-20T08:08:43;1.30;99.90
46508;DHT22;32223;53.654;10.014;2022-11-20T08:11:09;1.20;99.90
46508;DHT22;32223;53.654;10.014;2022-11-20T08:13:53;1.30;99.90
46508;DHT22;32223;53.654;10.014;2022-11-20T08:16:38;1.20;99.90
46508;DHT22;32223;53.654;10.014;2022-11-20T08:19:03;1.30;99.90
46508;DHT22;32223;53.654;10.014;2022-11-20T08:21:30;1.40;99.90
46508;DHT22;32223;53.654;10.014;2022-11-20T08:23:57;1.30;99.90
46508;DHT22;32223;53.654;10.014;2022-11-20T08:26:23;1.30;99.90
46508;DHT22;32223;53.654;10.014;2022-11-20T08:28:48;1.30;99.90
46508;DHT22;32223;53.654;10.014;2022-11-20T08:31:14;1.50;99.90
46508;DHT22;32223;53.654;10.014;2022-11-20T08:33:40;1.50;99.90
46508;DHT22;32223;53.654;10.014;2022-11-20T08:36:06;1.60;99.90
46508;DHT22;32223;53.654;10.014;2022-11-20T08:38:32;1.60;99.90
46508;DHT22;32223;53.654;10.014;2022-11-20T08:40:59;1.60;99.90
46508;DHT22;32223;53.654;10.014;2022-11-20T08:43:43;1.60;99.90
46508;DHT22;32223;53.654;10.014;2022-11-20T08:46:08;1.70;99.90
46508;DHT22;32223;53.654;10.014;2022-11-20T08:48:34;1.70;99.90
46508;DHT22;32223;53.654;10.014;2022-11-20T08:50:59;1.80;99.90
46508;DHT22;32223;53.654;10.014;2022-11-20T08:53:26;1.70;99.90
46508;DHT22;32223;53.654;10.014;2022-11-20T08:55:51;1.60;99.90
46508;DHT22;32223;53.654;10.014;2022-11-20T08:58:17;1.60;99.90
46508;DHT22;32223;53.654;10.014;2022-11-20T09:00:43;1.50;99.90
46508;DHT22;32223;53.654;10.014;2022-11-20T09:03:08;1.40;99.90
46508;DHT22;32223;53.654;10.014;2022-11-20T09:05:34;1.40;99.90
46508;DHT22;32223;53.654;10.014;2022-11-20T09:08:00;1.30;99.90
46508;DHT22;32223;53.654;10.014;2022-11-20T09:10:28;1.30;99.90
46508;DHT22;32223;53.654;10.014;2022-11-20T09:12:54;1.30;99.90
46508;DHT22;32223;53.654;10.014;2022-11-20T09:15:21;1.40;99.90
46508;DHT22;32223;53.654;10.014;2022-11-20T09:17:54;1.40;99.90
46508;DHT22;32223;53.654;10.014;2022-11-20T09:20:20;1.60;99.90
46508;DHT22;32223;53.654;10.014;2022-11-20T09:22:45;1.60;99.90
46508;DHT22;32223;53.654;10.014;2022-11-20T09:25:11;1.70;99.90
46508;DHT22;32223;53.654;10.014;2022-11-20T09:27:36;1.80;99.90
46508;DHT22;32223;53.654;10.014;2022-11-20T09:30:03;1.90;99.90
46508;DHT22;32223;53.654;10.014;2022-11-20T09:32:28;2.00;99.90
46508;DHT22;32223;53.654;10.014;2022-11-20T09:34:54;2.00;99.90
46508;DHT22;32223;53.654;10.014;2022-11-20T09:37:19;2.10;99.90
46508;DHT22;32223;53.654;10.014;2022-11-20T09:39:45;2.20;99.90
46508;DHT22;32223;53.654;10.014;2022-11-20T09:48:18;2.50;99.90
46508;DHT22;32223;53.654;10.014;2022-11-20T09:50:52;2.50;99.90
46508;DHT22;32223;53.654;10.014;2022-11-20T09:55:56;2.40;99.90
46508;DHT22;32223;53.654;10.014;2022-11-20T09:58:40;2.40;99.90
46508;DHT22;32223;53.654;10.014;2022-11-20T10:01:19;2.40;99.90
46508;DHT22;32223;53.654;10.014;2022-11-20T10:03:59;2.30;99.90
46508;DHT22;32223;53.654;10.014;2022-11-20T10:09:37;2.20;99.90
46508;DHT22;32223;53.654;10.014;2022-11-20T10:18:17;2.30;99.90
46508;DHT22;32223;53.654;10.014;2022-11-20T10:26:14;2.40;99.90
46508;DHT22;32223;53.654;10.014;2022-11-20T10:33:56;2.60;99.90
46508;DHT22;32223;53.654;10.014;2022-11-20T10:36:28;2.60;99.90
46508;DHT22;32223;53.654;10.014;2022-11-20T10:39:01;2.50;99.90
46508;DHT22;32223;53.654;10.014;2022-11-20T10:41:36;2.50;99.90
46508;DHT22;32223;53.654;10.014;2022-11-20T10:44:16;2.40;99.90
46508;DHT22;32223;53.654;10.014;2022-11-20T10:47:01;2.40;99.90
46508;DHT22;32223;53.654;10.014;2022-11-20T10:49:27;2.30;99.90
46508;DHT22;32223;53.654;10.014;2022-11-20T11:00:11;2.50;99.90
46508;DHT22;32223;53.654;10.014;2022-11-20T11:02:55;2.40;99.90
46508;DHT22;32223;53.654;10.014;2022-11-20T11:05:38;2.40;99.90
46508;DHT22;32223;53.654;10.014;2022-11-20T11:08:12;2.40;99.90
46508;DHT22;32223;53.654;10.014;2022-11-20T11:10:56;2.40;99.90
46508;DHT22;32223;53.654;10.014;2022-11-20T11:13:26;2.40;99.90
46508;DHT22;32223;53.654;10.014;2022-11-20T11:15:53;2.40;99.90
46508;DHT22;32223;53.654;10.014;2022-11-20T11:18:30;2.30;99.90
46508;DHT22;32223;53.654;10.014;2022-11-20T11:20:57;2.30;99.90
46508;DHT22;32223;53.654;10.014;2022-11-20T11:23:36;2.30;99.90
46508;DHT22;32223;53.654;10.014;2022-11-20T11:26:05;2.40;99.90
46508;DHT22;32223;53.654;10.014;2022-11-20T11:28:31;2.50;99.90
46508;DHT22;32223;53.654;10.014;2022-11-20T11:30:57;2.50;99.90
46508;DHT22;32223;53.654;10.014;2022-11-20T11:33:26;2.60;99.90
46508;DHT22;32223;53.654;10.014;2022-11-20T11:35:55;2.60;99.90
46508;DHT22;32223;53.654;10.014;2022-11-20T11:38:43;2.60;99.90
46508;DHT22;32223;53.654;10.014;2022-11-20T11:41:22;2.60;99.90
46508;DHT22;32223;53.654;10.014;2022-11-20T11:44:14;2.70;99.90
46508;DHT22;32223;53.654;10.014;2022-11-20T11:46:59;2.70;99.90
46508;DHT22;32223;53.654;10.014;2022-11-20T11:49:25;2.70;99.90
46508;DHT22;32223;53.654;10.014;2022-11-20T11:52:03;2.70;99.90
46508;DHT22;32223;53.654;10.014;2022-11-20T11:54:39;2.70;99.90
46508;DHT22;32223;53.654;10.014;2022-11-20T12:02:34;2.80;99.90
46508;DHT22;32223;53.654;10.014;2022-11-20T12:07:51;2.80;99.90
46508;DHT22;32223;53.654;10.014;2022-11-20T12:10:22;2.90;99.90
46508;DHT22;32223;53.654;10.014;2022-11-20T12:12:58;3.10;99.90
46508;DHT22;32223;53.654;10.014;2022-11-20T12:15:30;3.10;99.90
46508;DHT22;32223;53.654;10.014;2022-11-20T12:17:56;3.20;99.90
46508;DHT22;32223;53.654;10.014;2022-11-20T12:20:35;3.20;99.90
46508;DHT22;32223;53.654;10.014;2022-11-20T12:23:14;3.20;99.90
46508;DHT22;32223;53.654;10.014;2022-11-20T12:25:46;3.10;99.90
46508;DHT22;32223;53.654;10.014;2022-11-20T12:36:32;3.00;99.90
46508;DHT22;32223;53.654;10.014;2022-11-20T12:39:29;3.00;99.90
46508;DHT22;32223;53.654;10.014;2022-11-20T13:01:27;3.10;99.90
46508;DHT22;32223;53.654;10.014;2022-11-20T13:06:39;3.40;99.90
46508;DHT22;32223;53.654;10.014;2022-11-20T13:09:11;3.50;99.90
46508;DHT22;32223;53.654;10.014;2022-11-20T13:11:45;3.50;99.90
46508;DHT22;32223;53.654;10.014;2022-11-20T13:14:40;3.50;99.90
46508;DHT22;32223;53.654;10.014;2022-11-20T13:19:33;3.30;99.90
46508;DHT22;32223;53.654;10.014;2022-11-20T13:21:59;3.30;99.90
46508;DHT22;32223;53.654;10.014;2022-11-20T13:24:28;3.30;99.90
46508;DHT22;32223;53.654;10.014;2022-11-20T13:27:02;3.30;99.90
46508;DHT22;32223;53.654;10.014;2022-11-20T13:29:28;3.30;99.90
46508;DHT22;32223;53.654;10.014;2022-11-20T13:32:17;3.30;99.90
46508;DHT22;32223;53.654;10.014;2022-11-20T13:34:56;3.30;99.90
46508;DHT22;32223;53.654;10.014;2022-11-20T13:37:29;3.20;99.90
46508;DHT22;32223;53.654;10.014;2022-11-20T13:40:19;3.20;99.90
46508;DHT22;32223;53.654;10.014;2022-11-20T13:42:55;3.20;99.90
46508;DHT22;32223;53.654;10.014;2022-11-20T13:45:22;3.10;99.90
46508;DHT22;32223;53.654;10.014;2022-11-20T13:47:50;3.00;99.90
46508;DHT22;32223;53.654;10.014;2022-11-20T13:50:16;3.10;99.90
46508;DHT22;32223;53.654;10.014;2022-11-20T13:53:18;3.10;99.90
46508;DHT22;32223;53.654;10.014;2022-11-20T13:56:01;3.10;99.90
46508;DHT22;32223;53.654;10.014;2022-11-20T14:01:17;3.10;99.90
46508;DHT22;32223;53.654;10.014;2022-11-20T14:03:44;3.10;99.90
46508;DHT22;32223;53.654;10.014;2022-11-20T14:06:27;3.10;99.90
46508;DHT22;32223;53.654;10.014;2022-11-20T14:08:53;3.00;99.90
46508;DHT22;32223;53.654;10.014;2022-11-20T14:11:20;3.00;99.90
46508;DHT22;32223;53.654;10.014;2022-11-20T14:16:31;2.90;99.90
46508;DHT22;32223;53.654;10.014;2022-11-20T14:18:58;2.90;99.90
46508;DHT22;32223;53.654;10.014;2022-11-20T14:21:41;2.80;99.90
46508;DHT22;32223;53.654;10.014;2022-11-20T14:24:11;2.80;99.90
46508;DHT22;32223;53.654;10.014;2022-11-20T14:26:40;2.70;99.90
46508;DHT22;32223;53.654;10.014;2022-11-20T14:29:15;2.70;99.90
46508;DHT22;32223;53.654;10.014;2022-11-20T14:31:42;2.60;99.90
46508;DHT22;32223;53.654;10.014;2022-11-20T14:34:23;2.70;99.90
46508;DHT22;32223;53.654;10.014;2022-11-20T14:36:53;2.60;99.90
46508;DHT22;32223;53.654;10.014;2022-11-20T14:39:20;2.50;99.90
46508;DHT22;32223;53.654;10.014;2022-11-20T14:41:53;2.40;99.90
46508;DHT22;32223;53.654;10.014;2022-11-20T14:44:23;2.30;99.90
46508;DHT22;32223;53.654;10.014;2022-11-20T14:46:50;2.30;99.90
46508;DHT22;32223;53.654;10.014;2022-11-20T14:49:17;2.30;99.90
46508;DHT22;32223;53.654;10.014;2022-11-20T14:51:42;2.30;99.90
46508;DHT22;32223;53.654;10.014;2022-11-20T14:54:19;2.30;99.90
46508;DHT22;32223;53.654;10.014;2022-11-20T14:56:58;2.30;99.90
46508;DHT22;32223;53.654;10.014;2022-11-20T14:59:25;2.30;99.90
46508;DHT22;32223;53.654;10.014;2022-11-20T15:02:03;2.30;99.90
46508;DHT22;32223;53.654;10.014;2022-11-20T15:04:29;2.30;99.90
46508;DHT22;32223;53.654;10.014;2022-11-20T15:06:57;2.40;99.90
46508;DHT22;32223;53.654;10.014;2022-11-20T15:09:23;2.30;99.90
46508;DHT22;32223;53.654;10.014;2022-11-20T15:11:59;2.50;99.90
46508;DHT22;32223;53.654;10.014;2022-11-20T15:14:26;2.50;99.90
46508;DHT22;32223;53.654;10.014;2022-11-20T15:16:53;2.60;99.90
46508;DHT22;32223;53.654;10.014;2022-11-20T15:19:21;2.60;99.90
46508;DHT22;32223;53.654;10.014;2022-11-20T15:21:47;2.60;99.90
46508;DHT22;32223;53.654;10.014;2022-11-20T15:24:12;2.60;99.90
46508;DHT22;32223;53.654;10.014;2022-11-20T15:26:38;2.60;99.90
46508;DHT22;32223;53.654;10.014;2022-11-20T15:29:10;2.60;99.90
46508;DHT22;32223;53.654;10.014;2022-11-20T15:31:37;2.50;99.90
46508;DHT22;32223;53.654;10.014;2022-11-20T15:34:11;2.60;99.90
46508;DHT22;32223;53.654;10.014;2022-11-20T15:36:38;2.50;99.90
46508;DHT22;32223;53.654;10.014;2022-11-20T15:39:04;2.40;99.90
46508;DHT22;32223;53.654;10.014;2022-11-20T15:41:33;2.40;99.90
46508;DHT22;32223;53.654;10.014;2022-11-20T15:43:58;2.40;99.90
46508;DHT22;32223;53.654;10.014;2022-11-20T15:46:27;2.30;99.90
46508;DHT22;32223;53.654;10.014;2022-11-20T15:48:57;2.40;99.90
46508;DHT22;32223;53.654;10.014;2022-11-20T15:51:35;2.30;99.90
46508;DHT22;32223;53.654;10.014;2022-11-20T15:54:10;2.40;99.90
46508;DHT22;32223;53.654;10.014;2022-11-20T15:56:36;2.40;99.90
46508;DHT22;32223;53.654;10.014;2022-11-20T15:59:02;2.40;99.90
46508;DHT22;32223;53.654;10.014;2022-11-20T16:01:28;2.40;99.90
46508;DHT22;32223;53.654;10.014;2022-11-20T16:03:54;2.30;99.90
46508;DHT22;32223;53.654;10.014;2022-11-20T16:06:19;2.30;99.90
46508;DHT22;32223;53.654;10.014;2022-11-20T16:08:45;2.30;99.90
46508;DHT22;32223;53.654;10.014;2022-11-20T16:11:16;2.20;99.90
46508;DHT22;32223;53.654;10.014;2022-11-20T16:13:43;2.20;99.90
46508;DHT22;32223;53.654;10.014;2022-11-20T16:16:34;2.10;99.90
46508;DHT22;32223;53.654;10.014;2022-11-20T16:18:59;2.00;99.90
46508;DHT22;32223;53.654;10.014;2022-11-20T16:21:26;2.00;99.90
46508;DHT22;32223;53.654;10.014;2022-11-20T16:23:59;2.10;99.90
46508;DHT22;32223;53.654;10.014;2022-11-20T16:26:25;2.00;99.90
46508;DHT22;32223;53.654;10.014;2022-11-20T16:28:50;2.00;99.90
46508;DHT22;32223;53.654;10.014;2022-11-20T16:31:18;1.90;99.90
46508;DHT22;32223;53.654;10.014;2022-11-20T16:33:58;1.90;99.90
46508;DHT22;32223;53.654;10.014;2022-11-20T16:36:25;1.90;99.90
46508;DHT22;32223;53.654;10.014;2022-11-20T16:38:54;2.00;99.90
46508;DHT22;32223;53.654;10.014;2022-11-20T16:41:20;2.00;99.90
46508;DHT22;32223;53.654;10.014;2022-11-20T16:43:50;1.90;99.90
46508;DHT22;32223;53.654;10.014;2022-11-20T16:46:19;1.90;99.90
46508;DHT22;32223;53.654;10.014;2022-11-20T16:48:51;1.90;99.90
46508;DHT22;32223;53.654;10.014;2022-11-20T16:51:17;1.80;99.90
46508;DHT22;32223;53.654;10.014;2022-11-20T16:53:43;1.80;99.90
46508;DHT22;32223;53.654;10.014;2022-11-20T16:56:13;1.80;99.90
46508;DHT22;32223;53.654;10.014;2022-11-20T16:58:43;1.80;99.90
46508;DHT22;32223;53.654;10.014;2022-11-20T17:01:11;1.90;99.90
46508;DHT22;32223;53.654;10.014;2022-11-20T17:03:37;1.90;99.90
46508;DHT22;32223;53.654;10.014;2022-11-20T17:06:21;1.90;99.90
46508;DHT22;32223;53.654;10.014;2022-11-20T17:08:47;1.90;99.90
46508;DHT22;32223;53.654;10.014;2022-11-20T17:11:16;1.90;99.90
46508;DHT22;32223;53.654;10.014;2022-11-20T17:13:42;1.90;99.90